Date,TemperatureHighF,TemperatureAvgF,TemperatureLowF,DewpointHighF,DewpointAvgF,DewpointLowF,HumidityHigh,HumidityAvg,HumidityLow,PressureMaxIn,PressureMinIn,WindSpeedMaxMPH,WindSpeedAvgMPH,GustSpeedMaxMPH,PrecipitationSumIn
2013-11-7,59.0,44.4,29.3,22.7,16.9,7.0,67,38,13,30.46,30.30,9,2,0,0.00
2013-11-8,54.3,46.4,37.8,46.2,39.0,26.5,97,77,43,30.29,30.01,6,3,0,0.01
2013-11-9,71.4,51.7,32.6,48.3,34.5,30.1,98,61,23,30.15,30.04,10,3,0,0.01
2013-11-10,71.9,53.2,34.6,36.3,33.5,29.4,81,52,25,30.19,30.06,8,2,0,0.00
2013-11-11,73.2,53.8,39.3,47.3,40.2,33.9,85,63,37,30.16,30.02,8,2,0,0.00
2013-11-12,44.5,36.2,32.7,41.7,33.1,31.3,96,89,79,30.60,30.36,20,6,30,0.00
2013-11-13,56.9,41.8,31.9,41.3,35.5,30.6,98,81,50,30.59,30.29,8,2,13,0.00
2013-11-14,65.8,51.3,41.0,45.3,41.5,36.5,90,72,41,30.19,29.88,14,6,24,0.00
2013-11-15,68.9,53.4,34.3,48.6,40.7,32.6,97,67,30,29.94,29.74,12,4,18,0.00
2013-11-16,72.3,61.0,47.4,47.8,45.6,40.1,88,59,37,29.75,29.58,16,7,30,0.00
2013-11-17,68.6,60.5,51.0,40.0,35.3,30.7,51,40,28,29.91,29.67,20,6,28,0.00
2013-11-18,66.4,56.1,42.5,38.0,35.5,31.8,70,47,33,30.02,29.90,8,2,14,0.00
2013-11-19,73.0,56.2,37.9,45.7,38.5,31.6,81,54,30,30.00,29.80,10,3,17,0.00
2013-11-20,74.3,59.1,45.7,53.0,39.4,21.9,95,55,16,29.80,29.66,10,3,17,0.00
2013-11-21,72.9,55.0,38.4,43.1,33.4,28.2,72,48,20,30.00,29.77,8,2,14,0.00
2013-11-22,48.2,28.8,23.1,41.6,25.9,21.4,95,89,67,30.46,29.99,10,4,14,0.00
2013-11-23,27.0,25.1,23.5,24.9,23.4,22.0,95,93,89,30.61,30.46,8,3,13,0.00
2013-11-24,26.5,23.5,20.1,25.5,22.2,18.7,96,95,93,30.55,30.34,4,2,0,0.00
2013-11-25,46.3,32.6,22.9,36.2,27.9,21.7,97,84,60,30.33,30.18,12,4,0,0.07
2013-11-26,42.9,33.7,23.8,26.4,18.9,8.6,83,57,28,30.49,30.28,17,7,21,0.00
2013-11-27,46.9,33.9,18.8,25.3,20.6,15.4,88,61,35,30.49,30.28,6,2,11,0.00
2013-11-28,61.7,42.2,25.3,30.0,26.3,19.5,84,57,27,30.30,30.16,9,2,13,0.00
2013-11-29,65.5,45.1,24.7,35.3,30.4,21.2,91,61,30,30.35,30.19,9,2,15,0.00
2013-11-30,72.0,55.0,42.5,38.5,35.5,31.2,70,50,25,30.25,30.01,10,3,20,0.00